Time;durP1;ratioP1;P1;durP2;ratioP2;P2;SDS_P1;SDS_P2;PMS_P1;PMS_P2;Temp;Humidity;BMP_temperature;BMP_pressure;BME280_temperature;BME280_humidity;BME280_pressure;Samples;Min_cycle;Max_cycle;Signal;HPM_P1;HPM_P2
2022/10/20 00:00:22;;;;;;;75.07;47.43;;;16.70;85.40;;;;;;5003588;28;20220;-69
2022/10/20 00:02:49;;;;;;;65.47;43.67;;;16.70;85.10;;;;;;5006195;28;20539;-69
2022/10/20 00:05:16;;;;;;;64.87;44.80;;;16.60;84.80;;;;;;5007341;28;20610;-69
2022/10/20 00:07:43;;;;;;;72.00;48.23;;;16.60;84.80;;;;;;5007702;28;20214;-69
2022/10/20 00:10:10;;;;;;;69.73;48.33;;;16.60;84.80;;;;;;5006116;28;20262;-69
2022/10/20 00:12:37;;;;;;;80.27;50.77;;;16.50;84.90;;;;;;5006297;28;20207;-69
2022/10/20 00:15:05;;;;;;;67.00;47.17;;;16.50;85.00;;;;;;5002473;28;20246;-69
2022/10/20 00:17:32;;;;;;;77.70;51.30;;;16.50;85.10;;;;;;5006187;28;20197;-69
2022/10/20 00:19:59;;;;;;;81.50;51.17;;;16.50;85.00;;;;;;5002982;28;20228;-69
2022/10/20 00:22:26;;;;;;;87.93;54.60;;;16.50;85.00;;;;;;5003093;28;20201;-69
2022/10/20 00:24:53;;;;;;;80.93;48.23;;;16.40;85.20;;;;;;5001466;28;20196;-69
2022/10/20 00:27:20;;;;;;;70.77;46.17;;;16.40;85.40;;;;;;5003089;28;20216;-69
2022/10/20 00:29:48;;;;;;;72.17;48.67;;;16.40;85.00;;;;;;5002125;28;20213;-69
2022/10/20 00:32:15;;;;;;;77.97;50.03;;;16.30;84.80;;;;;;5003657;28;20609;-69
2022/10/20 00:34:42;;;;;;;68.60;45.20;;;16.30;84.90;;;;;;5008298;28;20353;-69
2022/10/20 00:37:09;;;;;;;68.23;46.30;;;16.30;84.90;;;;;;5001871;28;20231;-69
2022/10/20 00:39:36;;;;;;;83.23;48.53;;;16.20;84.80;;;;;;5003234;28;20241;-69
2022/10/20 00:42:04;;;;;;;80.60;52.27;;;16.20;85.00;;;;;;5006211;28;20278;-69
2022/10/20 00:44:50;;;;;;;78.07;50.57;;;16.20;85.30;;;;;;5010601;28;20641;-69
2022/10/20 00:47:43;;;;;;;81.03;47.47;;;16.20;85.70;;;;;;5003274;28;20212;-69
2022/10/20 00:50:20;;;;;;;76.63;50.07;;;16.20;85.70;;;;;;5005716;28;20200;-69
2022/10/20 00:52:48;;;;;;;84.63;49.30;;;16.20;85.60;;;;;;5004939;28;20242;-69
2022/10/20 00:55:24;;;;;;;81.17;52.83;;;16.20;85.50;;;;;;5010472;28;20285;-69
2022/10/20 00:57:53;;;;;;;81.10;51.50;;;16.20;85.50;;;;;;5009311;28;20551;-69
2022/10/20 01:00:20;;;;;;;70.10;47.37;;;16.20;85.50;;;;;;5006003;28;20207;-69
2022/10/20 01:02:51;;;;;;;78.17;49.80;;;16.20;85.50;;;;;;5006320;28;20650;-69
2022/10/20 01:05:18;;;;;;;80.83;51.00;;;16.10;85.40;;;;;;5004161;28;20200;-69
2022/10/20 01:07:45;;;;;;;90.70;55.80;;;16.10;85.50;;;;;;5004776;28;20234;-69
2022/10/20 01:10:13;;;;;;;79.73;49.53;;;16.10;85.70;;;;;;5005894;28;20220;-69
2022/10/20 01:12:54;;;;;;;85.03;49.17;;;16.10;85.90;;;;;;5005298;28;20266;-70
2022/10/20 01:15:43;;;;;;;90.53;53.93;;;16.10;85.50;;;;;;5002698;28;20219;-69
2022/10/20 01:18:19;;;;;;;88.87;52.63;;;16.10;85.20;;;;;;5003986;28;20258;-69
2022/10/20 01:20:48;;;;;;;112.33;62.97;;;16.00;85.20;;;;;;5005161;28;20243;-69
2022/10/20 01:23:40;;;;;;;102.73;61.77;;;16.00;85.30;;;;;;4999937;28;20565;-69
2022/10/20 01:26:28;;;;;;;94.60;57.23;;;16.00;85.40;;;;;;5002324;28;20248;-69
2022/10/20 01:29:04;;;;;;;98.20;57.27;;;16.00;86.30;;;;;;5002984;28;20243;-69
2022/10/20 01:31:49;;;;;;;98.77;57.23;;;16.00;87.50;;;;;;5003674;28;20200;-69
2022/10/20 01:34:16;;;;;;;80.57;51.67;;;16.00;87.70;;;;;;5003547;28;20219;-69
2022/10/20 01:37:14;;;;;;;81.20;53.37;;;15.90;88.00;;;;;;5002776;28;20227;-69
2022/10/20 01:40:27;;;;;;;82.10;50.77;;;15.90;88.40;;;;;;5003314;28;20270;-69
2022/10/20 01:42:58;;;;;;;75.03;50.43;;;15.90;88.20;;;;;;5004234;28;20218;-69
2022/10/20 01:45:29;;;;;;;76.20;44.40;;;15.90;88.00;;;;;;4999294;28;20211;-69
2022/10/20 01:48:00;;;;;;;70.47;45.47;;;15.80;87.50;;;;;;5031273;28;20207;-69
2022/10/20 01:50:28;;;;;;;77.67;50.30;;;15.80;87.00;;;;;;5002740;28;20203;-69
2022/10/20 01:52:59;;;;;;;80.67;46.63;;;15.80;86.70;;;;;;5003687;28;20215;-69
2022/10/20 01:55:26;;;;;;;162.97;42.53;;;15.70;86.50;;;;;;5002909;28;20703;-69
2022/10/20 01:58:11;;;;;;;276.10;31.80;;;15.70;86.80;;;;;;5010934;28;20211;-69
2022/10/20 02:00:39;;;;;;;97.70;28.00;;;15.60;87.40;;;;;;5011453;28;20209;-69
2022/10/20 02:03:24;;;;;;;34.87;28.07;;;15.60;87.70;;;;;;5006246;28;20266;-69
2022/10/20 02:06:25;;;;;;;80.87;32.57;;;15.50;87.90;;;;;;5005112;28;20710;-69
2022/10/20 02:09:02;;;;;;;191.47;60.03;;;15.40;88.20;;;;;;5002645;28;20197;-70
2022/10/20 02:11:35;;;;;;;174.63;85.80;;;15.40;88.60;;;;;;5001751;28;20234;-69
2022/10/20 02:14:04;;;;;;;165.17;93.30;;;15.40;88.80;;;;;;5006518;28;20534;-69
2022/10/20 02:16:37;;;;;;;227.23;80.27;;;15.30;88.50;;;;;;5002706;28;20596;-69
2022/10/20 02:19:08;;;;;;;144.23;80.67;;;15.20;88.40;;;;;;5002522;28;20263;-70
2022/10/20 02:21:35;;;;;;;247.30;63.20;;;15.20;87.80;;;;;;5004864;28;20231;-69
2022/10/20 02:24:07;;;;;;;133.87;69.30;;;15.10;87.70;;;;;;5002043;28;20637;-69
2022/10/20 02:26:38;;;;;;;155.33;72.07;;;15.00;88.20;;;;;;5001702;28;20733;-69
2022/10/20 02:29:24;;;;;;;118.67;68.27;;;15.00;88.60;;;;;;5003417;28;20200;-69
2022/10/20 02:31:51;;;;;;;107.87;66.37;;;15.00;89.10;;;;;;5003600;28;20215;-70
2022/10/20 02:34:18;;;;;;;97.20;60.67;;;15.00;89.30;;;;;;5005876;28;20217;-69
2022/10/20 02:36:45;;;;;;;118.00;71.03;;;15.00;89.50;;;;;;5000277;28;20715;-69
2022/10/20 02:39:12;;;;;;;125.83;76.90;;;15.10;89.60;;;;;;5010671;28;20211;-69
2022/10/20 02:41:39;;;;;;;126.97;76.70;;;15.10;89.70;;;;;;4999815;28;20209;-69
2022/10/20 02:44:06;;;;;;;119.17;70.33;;;15.10;89.70;;;;;;5003606;28;20238;-70
2022/10/20 02:46:33;;;;;;;168.13;69.47;;;15.10;89.80;;;;;;5005038;28;20253;-70
2022/10/20 02:49:00;;;;;;;171.53;72.90;;;15.10;90.00;;;;;;5003998;28;20659;-70
2022/10/20 02:51:27;;;;;;;144.03;71.23;;;15.10;90.10;;;;;;5021976;28;20292;-70
2022/10/20 02:53:54;;;;;;;133.47;71.83;;;15.10;90.30;;;;;;5000897;28;20209;-70
2022/10/20 02:56:21;;;;;;;106.57;65.53;;;15.20;90.40;;;;;;5003020;28;20613;-70
2022/10/20 02:58:53;;;;;;;138.33;65.40;;;15.20;90.50;;;;;;5001314;28;20214;-70
2022/10/20 03:01:21;;;;;;;148.33;64.47;;;15.20;90.60;;;;;;4999191;28;20265;-69
2022/10/20 03:03:48;;;;;;;177.43;64.30;;;15.20;90.70;;;;;;5007246;28;20265;-69
2022/10/20 03:06:15;;;;;;;128.27;63.83;;;15.30;90.80;;;;;;5001024;28;20203;-70
2022/10/20 03:08:43;;;;;;;121.20;67.00;;;15.30;90.80;;;;;;5001652;28;20582;-70
2022/10/20 03:11:10;;;;;;;146.80;59.90;;;15.30;90.90;;;;;;5002681;28;20204;-70
2022/10/20 03:13:37;;;;;;;130.57;61.97;;;15.30;91.00;;;;;;5004698;28;20294;-70
2022/10/20 03:16:04;;;;;;;226.63;58.57;;;15.30;91.10;;;;;;5005429;28;20295;-70
2022/10/20 03:18:31;;;;;;;226.53;56.53;;;15.30;91.20;;;;;;5000151;28;20640;-70
2022/10/20 03:20:58;;;;;;;296.67;63.07;;;15.30;91.40;;;;;;5001073;28;20234;-70
2022/10/20 03:23:25;;;;;;;233.50;62.27;;;15.40;91.50;;;;;;5001320;28;20660;-70
2022/10/20 03:25:52;;;;;;;273.47;65.10;;;15.40;91.50;;;;;;4998528;28;20600;-70
2022/10/20 03:28:19;;;;;;;545.63;64.93;;;15.40;91.70;;;;;;5004842;28;20266;-70
2022/10/20 03:30:46;;;;;;;283.90;64.80;;;15.40;92.10;;;;;;5002466;28;20243;-70
2022/10/20 03:33:13;;;;;;;189.10;63.83;;;15.40;91.90;;;;;;5002991;28;20231;-70
2022/10/20 03:35:40;;;;;;;166.10;62.67;;;15.40;92.00;;;;;;5000267;28;20536;-70
2022/10/20 03:38:07;;;;;;;180.23;62.00;;;15.40;92.10;;;;;;5000871;28;20211;-70
2022/10/20 03:40:34;;;;;;;203.07;61.37;;;15.30;92.20;;;;;;4999703;28;20552;-70
2022/10/20 03:43:01;;;;;;;161.07;62.23;;;15.40;92.40;;;;;;5000522;28;20191;-70
2022/10/20 03:45:28;;;;;;;193.57;55.90;;;15.40;92.50;;;;;;4998482;28;20652;-70
2022/10/20 03:47:55;;;;;;;133.33;58.63;;;15.30;92.50;;;;;;5001424;28;20209;-70
2022/10/20 03:50:22;;;;;;;275.03;59.80;;;15.40;92.50;;;;;;5003103;28;20216;-70
2022/10/20 03:52:50;;;;;;;149.97;52.40;;;15.30;92.40;;;;;;5001021;28;20201;-70
2022/10/20 03:55:18;;;;;;;175.27;46.73;;;15.30;92.40;;;;;;5000540;28;20234;-70
2022/10/20 03:57:45;;;;;;;103.53;48.00;;;15.30;92.70;;;;;;5004432;28;20216;-70
2022/10/20 04:00:12;;;;;;;86.40;48.77;;;15.30;92.40;;;;;;4996774;28;20207;-70
2022/10/20 04:02:42;;;;;;;130.57;45.63;;;15.30;92.40;;;;;;4998895;28;20262;-70
2022/10/20 04:05:15;;;;;;;151.07;48.63;;;15.30;92.40;;;;;;5003935;28;20207;-70
2022/10/20 04:07:42;;;;;;;111.07;50.07;;;15.20;92.30;;;;;;5010476;28;20243;-70
2022/10/20 04:10:11;;;;;;;235.00;49.07;;;15.20;92.20;;;;;;5003051;28;20696;-70
2022/10/20 04:12:39;;;;;;;183.47;50.93;;;15.20;92.20;;;;;;5002719;28;20207;-71
2022/10/20 04:15:07;;;;;;;267.40;51.77;;;15.20;92.20;;;;;;5006423;28;20270;-70
2022/10/20 04:17:35;;;;;;;109.40;51.57;;;15.10;92.20;;;;;;4997783;28;20223;-70
2022/10/20 04:20:04;;;;;;;187.60;50.53;;;15.10;92.20;;;;;;5005141;28;20282;-70
2022/10/20 04:22:31;;;;;;;112.63;50.73;;;15.10;92.30;;;;;;5005142;28;20204;-70
2022/10/20 04:24:58;;;;;;;164.07;49.80;;;15.10;92.40;;;;;;5002094;28;20192;-70
2022/10/20 04:27:25;;;;;;;101.30;51.30;;;15.10;92.40;;;;;;5002185;28;20223;-70
2022/10/20 04:29:52;;;;;;;253.73;51.77;;;15.10;92.30;;;;;;5007758;28;20253;-70
2022/10/20 04:32:19;;;;;;;174.93;50.20;;;15.00;92.30;;;;;;5005892;28;20561;-70
2022/10/20 04:34:46;;;;;;;177.90;48.80;;;15.00;92.20;;;;;;5006383;28;20641;-70
2022/10/20 04:37:13;;;;;;;146.07;50.13;;;15.00;92.30;;;;;;5001411;28;20223;-70
2022/10/20 04:39:40;;;;;;;273.67;52.63;;;15.00;92.30;;;;;;5003891;28;20225;-70
2022/10/20 04:42:07;;;;;;;147.87;52.30;;;14.90;92.30;;;;;;5000661;28;20206;-70
2022/10/20 04:44:34;;;;;;;98.43;51.50;;;14.90;92.30;;;;;;5006723;28;20225;-70
2022/10/20 04:47:01;;;;;;;110.33;48.10;;;14.90;92.40;;;;;;5002090;28;20225;-70
2022/10/20 04:49:28;;;;;;;114.90;47.47;;;14.90;92.60;;;;;;5006354;28;20233;-70
2022/10/20 04:51:54;;;;;;;88.73;45.33;;;14.90;92.70;;;;;;5007252;28;20389;-70
2022/10/20 04:54:27;;;;;;;111.87;45.77;;;14.90;92.80;;;;;;5005600;28;20696;-70
2022/10/20 04:56:54;;;;;;;113.70;46.40;;;14.90;92.80;;;;;;5001511;28;20212;-70
2022/10/20 04:59:22;;;;;;;107.87;44.13;;;14.90;92.90;;;;;;5013152;28;20677;-70
2022/10/20 05:01:49;;;;;;;131.47;46.33;;;14.90;92.90;;;;;;5004333;28;20200;-70
2022/10/20 05:04:20;;;;;;;91.67;43.53;;;14.90;92.90;;;;;;5005658;28;20202;-70
2022/10/20 05:06:48;;;;;;;95.37;44.77;;;14.90;93.00;;;;;;5008147;28;20204;-70
2022/10/20 05:09:15;;;;;;;100.83;43.93;;;14.90;93.00;;;;;;5002657;28;20207;-70
2022/10/20 05:11:42;;;;;;;116.57;44.43;;;15.00;93.10;;;;;;5000989;28;20290;-70
2022/10/20 05:14:09;;;;;;;179.50;44.40;;;15.00;93.10;;;;;;5007477;28;20218;-70
2022/10/20 05:16:36;;;;;;;93.60;45.60;;;15.00;93.10;;;;;;5004828;28;20272;-70
2022/10/20 05:19:03;;;;;;;103.60;44.00;;;15.00;93.10;;;;;;5004638;28;20642;-70
2022/10/20 05:21:31;;;;;;;131.70;42.57;;;15.00;93.20;;;;;;5004206;28;20685;-70
2022/10/20 05:24:03;;;;;;;273.00;43.73;;;15.00;93.30;;;;;;5005249;28;20207;-70
2022/10/20 05:26:35;;;;;;;105.53;42.43;;;15.10;93.40;;;;;;5002537;28;20203;-70
2022/10/20 05:29:04;;;;;;;93.17;45.40;;;15.10;93.40;;;;;;5005086;28;20262;-70
2022/10/20 05:31:34;;;;;;;113.73;46.77;;;15.10;93.50;;;;;;5001727;28;20265;-70
2022/10/20 05:34:01;;;;;;;84.40;45.73;;;15.10;93.50;;;;;;5004684;28;20207;-70
2022/10/20 05:36:28;;;;;;;102.73;45.83;;;15.20;93.60;;;;;;5002511;28;20243;-70
2022/10/20 05:38:56;;;;;;;128.43;47.13;;;15.20;93.60;;;;;;5004880;28;20228;-70
2022/10/20 05:41:27;;;;;;;101.77;43.73;;;15.20;93.60;;;;;;5001913;28;20266;-70
2022/10/20 05:43:59;;;;;;;127.53;47.77;;;15.30;93.60;;;;;;5004942;28;20227;-70
2022/10/20 05:46:30;;;;;;;130.77;45.33;;;15.30;93.60;;;;;;5004230;28;20203;-70
2022/10/20 05:49:00;;;;;;;108.17;46.20;;;15.30;93.60;;;;;;5000109;28;20216;-70
2022/10/20 05:51:34;;;;;;;98.40;42.97;;;15.30;93.60;;;;;;5005874;28;20204;-70
2022/10/20 05:54:02;;;;;;;84.87;41.90;;;15.40;93.60;;;;;;5003621;28;20609;-70
2022/10/20 05:56:30;;;;;;;110.10;44.93;;;15.40;93.60;;;;;;4998332;28;20240;-70
2022/10/20 05:58:57;;;;;;;82.73;44.73;;;15.40;93.60;;;;;;5003475;28;20227;-70
2022/10/20 06:01:38;;;;;;;73.67;43.87;;;15.40;93.60;;;;;;5003731;28;20220;-70
2022/10/20 06:04:07;;;;;;;110.37;42.77;;;15.40;93.70;;;;;;5002252;28;20296;-70
2022/10/20 06:06:35;;;;;;;104.63;43.07;;;15.40;93.70;;;;;;5005173;28;20239;-70
2022/10/20 06:09:05;;;;;;;83.63;43.23;;;15.50;93.80;;;;;;5003023;28;20204;-70
2022/10/20 06:11:33;;;;;;;97.47;43.80;;;15.50;93.80;;;;;;5001318;28;20652;-70
2022/10/20 06:14:05;;;;;;;124.30;43.60;;;15.50;93.90;;;;;;5005972;28;20291;-70
2022/10/20 06:16:33;;;;;;;137.10;44.00;;;15.60;94.00;;;;;;5011971;28;20230;-70
2022/10/20 06:19:00;;;;;;;65.97;43.60;;;15.60;94.00;;;;;;5002359;28;20270;-70
2022/10/20 06:21:30;;;;;;;73.63;43.67;;;15.70;94.10;;;;;;5002910;28;20298;-70
2022/10/20 06:23:59;;;;;;;74.13;44.27;;;15.70;94.20;;;;;;5004116;28;20207;-70
2022/10/20 06:26:28;;;;;;;97.03;43.57;;;15.70;94.20;;;;;;5000901;28;20208;-70
2022/10/20 06:28:56;;;;;;;86.33;44.87;;;15.80;94.20;;;;;;5009570;28;20207;-70
2022/10/20 06:31:33;;;;;;;92.03;43.60;;;15.90;94.20;;;;;;5005703;28;20287;-70
2022/10/20 06:34:02;;;;;;;71.30;42.50;;;15.90;94.20;;;;;;5003438;28;20191;-70
2022/10/20 06:36:29;;;;;;;67.30;44.30;;;16.00;94.20;;;;;;4996217;28;20200;-70
2022/10/20 06:38:57;;;;;;;73.77;43.80;;;16.00;94.30;;;;;;5001566;28;20283;-70
2022/10/20 06:41:26;;;;;;;105.63;45.23;;;16.00;94.30;;;;;;5000076;28;20203;-70
2022/10/20 06:43:57;;;;;;;99.77;41.90;;;16.10;94.30;;;;;;5004106;28;20198;-70
2022/10/20 06:46:30;;;;;;;72.47;43.50;;;16.10;94.20;;;;;;5002911;28;20228;-70
2022/10/20 06:49:05;;;;;;;69.40;43.77;;;16.20;94.20;;;;;;5003435;28;20255;-70
2022/10/20 06:51:34;;;;;;;98.80;42.07;;;16.20;94.20;;;;;;5010340;28;20208;-70
2022/10/20 06:54:01;;;;;;;97.10;44.60;;;16.20;94.20;;;;;;5002293;28;20238;-70
2022/10/20 06:56:30;;;;;;;82.53;46.47;;;16.30;94.20;;;;;;5001228;28;20626;-69
2022/10/20 06:58:59;;;;;;;81.10;43.33;;;16.30;94.20;;;;;;4999057;28;20204;-69
2022/10/20 07:01:28;;;;;;;103.33;45.27;;;16.30;94.20;;;;;;5001664;28;20594;-70
2022/10/20 07:03:58;;;;;;;103.63;45.50;;;16.40;94.10;;;;;;5003329;28;20254;-70
2022/10/20 07:06:28;;;;;;;88.10;47.47;;;16.40;94.20;;;;;;5003493;28;20649;-70
2022/10/20 07:08:56;;;;;;;81.73;44.03;;;16.50;94.20;;;;;;5002979;28;20494;-70
2022/10/20 07:11:26;;;;;;;80.30;46.07;;;16.50;94.20;;;;;;5002040;28;20236;-70
2022/10/20 07:13:54;;;;;;;84.70;46.33;;;16.60;94.20;;;;;;4999834;28;20199;-70
2022/10/20 07:16:23;;;;;;;71.73;47.37;;;16.60;94.20;;;;;;5002794;28;20649;-70
2022/10/20 07:18:51;;;;;;;95.17;48.23;;;16.70;94.20;;;;;;5002586;28;20299;-70
2022/10/20 07:21:25;;;;;;;95.37;50.03;;;16.70;94.20;;;;;;5016767;28;20321;-70
2022/10/20 07:24:01;;;;;;;104.63;50.37;;;16.70;94.20;;;;;;5006076;28;20251;-69
2022/10/20 07:26:31;;;;;;;206.77;51.00;;;16.80;94.20;;;;;;5001409;28;20204;-70
2022/10/20 07:29:00;;;;;;;127.47;50.90;;;16.80;94.20;;;;;;5005066;28;20196;-70
2022/10/20 07:31:35;;;;;;;127.37;55.13;;;16.80;94.20;;;;;;5007410;28;20204;-70
2022/10/20 07:34:04;;;;;;;139.20;56.67;;;16.90;94.30;;;;;;4999670;28;20200;-70
2022/10/20 07:36:50;;;;;;;131.50;56.63;;;17.00;94.30;;;;;;5002225;28;20536;-70
2022/10/20 07:39:17;;;;;;;124.57;54.90;;;17.00;94.40;;;;;;5003108;28;20262;-70
2022/10/20 07:41:46;;;;;;;128.37;53.83;;;17.10;94.40;;;;;;5009553;28;20205;-70
2022/10/20 07:44:14;;;;;;;146.43;55.93;;;17.10;94.40;;;;;;5000523;28;20200;-70
2022/10/20 07:46:41;;;;;;;136.73;59.63;;;17.20;94.40;;;;;;5003259;28;20561;-70
2022/10/20 07:49:08;;;;;;;125.47;54.50;;;17.30;94.40;;;;;;5004408;28;20209;-70
2022/10/20 07:51:55;;;;;;;134.93;59.67;;;17.30;94.40;;;;;;5002411;28;20212;-70
2022/10/20 07:54:22;;;;;;;286.30;57.70;;;17.50;94.50;;;;;;5005707;28;20200;-70
2022/10/20 07:56:49;;;;;;;139.07;61.10;;;17.50;94.40;;;;;;5001499;28;20208;-70
2022/10/20 07:59:16;;;;;;;159.37;63.40;;;17.60;94.30;;;;;;5006367;28;20192;-70
2022/10/20 08:01:43;;;;;;;156.73;64.43;;;17.60;94.30;;;;;;5002514;28;20261;-71
2022/10/20 08:04:10;;;;;;;153.57;66.27;;;17.70;94.30;;;;;;5006620;28;20197;-70
2022/10/20 08:06:38;;;;;;;167.47;70.63;;;17.80;94.40;;;;;;5003185;28;20199;-70
2022/10/20 08:09:06;;;;;;;144.43;64.17;;;17.80;94.40;;;;;;5006103;28;20206;-70
2022/10/20 08:11:34;;;;;;;177.17;67.20;;;17.90;94.40;;;;;;5006625;28;20200;-70
2022/10/20 08:14:01;;;;;;;169.93;71.43;;;18.00;94.40;;;;;;5003492;28;20242;-70
2022/10/20 08:16:28;;;;;;;191.27;69.93;;;18.00;94.20;;;;;;5003057;28;20210;-70
2022/10/20 08:19:00;;;;;;;194.20;73.00;;;18.10;94.20;;;;;;5002631;28;20293;-69
2022/10/20 08:21:43;;;;;;;175.10;66.50;;;18.20;94.20;;;;;;4998936;28;20251;-70
2022/10/20 08:24:10;;;;;;;196.10;66.43;;;18.30;94.30;;;;;;5006480;28;20265;-68
2022/10/20 08:26:37;;;;;;;220.07;73.73;;;18.30;94.50;;;;;;5000067;28;20205;-68
2022/10/20 08:29:05;;;;;;;179.23;72.73;;;18.30;94.20;;;;;;5008984;28;20211;-67
2022/10/20 08:31:32;;;;;;;221.47;71.77;;;18.40;94.20;;;;;;5005596;28;20268;-68
2022/10/20 08:33:59;;;;;;;221.00;71.93;;;18.50;94.30;;;;;;5007503;28;20224;-66
2022/10/20 08:36:27;;;;;;;349.30;65.90;;;18.50;94.30;;;;;;4999835;28;20202;-70
2022/10/20 08:38:55;;;;;;;166.57;70.47;;;18.70;94.30;;;;;;5004611;28;20589;-72
2022/10/20 08:41:43;;;;;;;165.13;68.33;;;18.70;94.10;;;;;;5003704;28;20206;-69
2022/10/20 08:44:33;;;;;;;175.77;68.00;;;18.80;94.20;;;;;;5005945;28;20198;-69
2022/10/20 08:47:13;;;;;;;182.17;62.10;;;18.90;94.10;;;;;;5005486;28;20260;-68
2022/10/20 08:49:40;;;;;;;148.00;62.40;;;19.00;94.10;;;;;;5003891;28;20214;-72
2022/10/20 08:52:13;;;;;;;154.87;61.43;;;19.10;94.00;;;;;;5005193;28;20585;-67
2022/10/20 08:54:41;;;;;;;159.20;65.63;;;19.10;93.90;;;;;;5003963;28;20201;-68
2022/10/20 08:57:23;;;;;;;165.23;65.97;;;19.20;93.80;;;;;;5005128;28;20198;-66
2022/10/20 08:59:52;;;;;;;158.40;69.10;;;19.30;93.80;;;;;;5004878;28;20508;-67
2022/10/20 09:02:20;;;;;;;156.60;67.57;;;19.30;93.70;;;;;;5005044;28;20280;-70
2022/10/20 09:04:57;;;;;;;166.20;67.97;;;19.40;93.70;;;;;;5004989;28;20307;-73
2022/10/20 09:07:28;;;;;;;150.63;65.40;;;19.40;93.60;;;;;;5005521;28;20221;-74
2022/10/20 09:10:20;;;;;;;142.33;64.97;;;19.40;93.50;;;;;;5005597;28;20209;-72
2022/10/20 09:12:49;;;;;;;145.30;65.03;;;19.50;93.50;;;;;;5002811;28;20206;-72
2022/10/20 09:15:18;;;;;;;146.20;67.07;;;19.50;93.30;;;;;;5002654;28;20269;-72
2022/10/20 09:17:52;;;;;;;140.90;63.77;;;19.50;93.30;;;;;;5004544;28;20727;-68
2022/10/20 09:20:27;;;;;;;151.47;65.17;;;19.60;93.20;;;;;;5004014;28;20249;-68
2022/10/20 09:22:54;;;;;;;141.87;65.13;;;19.60;93.30;;;;;;5003284;28;20695;-69
2022/10/20 09:25:24;;;;;;;140.17;66.93;;;19.70;93.30;;;;;;5004210;28;20276;-68
2022/10/20 09:27:52;;;;;;;157.17;67.10;;;19.70;93.10;;;;;;5004095;28;20206;-70
2022/10/20 09:30:21;;;;;;;153.40;65.60;;;19.80;93.10;;;;;;5005980;28;20222;-71
2022/10/20 09:32:49;;;;;;;135.10;60.27;;;19.80;93.00;;;;;;5006183;28;20227;-73
2022/10/20 09:35:29;;;;;;;137.90;63.63;;;19.90;93.00;;;;;;5001660;28;20277;-70
2022/10/20 09:38:28;;;;;;;131.53;66.07;;;20.00;93.00;;;;;;5002813;28;20223;-72
2022/10/20 09:41:16;;;;;;;131.93;61.37;;;20.10;92.80;;;;;;5003256;28;20194;-72
2022/10/20 09:44:07;;;;;;;149.13;64.90;;;20.20;92.80;;;;;;5003863;28;20209;-69
2022/10/20 09:46:42;;;;;;;130.37;63.37;;;20.30;92.70;;;;;;5005834;28;20210;-68
2022/10/20 09:49:30;;;;;;;130.37;62.70;;;20.40;92.60;;;;;;5003077;28;20222;-68
2022/10/20 09:52:00;;;;;;;128.10;61.43;;;20.60;92.40;;;;;;5005404;28;20221;-69
2022/10/20 09:54:28;;;;;;;124.20;61.33;;;20.70;92.20;;;;;;5005509;28;20199;-68
2022/10/20 09:57:13;;;;;;;124.30;63.10;;;20.80;91.90;;;;;;5006531;28;20584;-73
2022/10/20 09:59:46;;;;;;;122.37;59.77;;;20.90;91.80;;;;;;5000410;28;20207;-67
2022/10/20 10:02:19;;;;;;;121.80;60.67;;;21.10;91.70;;;;;;5003536;28;20830;-70
2022/10/20 10:04:53;;;;;;;109.90;57.40;;;21.30;91.50;;;;;;5003782;28;20204;-69
2022/10/20 10:07:26;;;;;;;110.47;58.47;;;21.50;91.00;;;;;;4999057;28;20283;-70
2022/10/20 10:10:18;;;;;;;109.00;58.20;;;21.70;90.60;;;;;;5001707;28;20203;-67
2022/10/20 10:12:53;;;;;;;107.07;59.30;;;21.90;89.90;;;;;;5010347;28;20514;-67
2022/10/20 10:15:29;;;;;;;117.47;59.40;;;22.10;89.20;;;;;;5003691;28;20222;-72
2022/10/20 10:17:57;;;;;;;110.07;56.13;;;22.30;88.50;;;;;;5001596;28;20212;-68
2022/10/20 10:20:28;;;;;;;104.40;56.73;;;22.50;87.30;;;;;;4999272;28;20248;-68
2022/10/20 10:23:19;;;;;;;102.10;56.93;;;22.60;86.60;;;;;;5005446;28;20211;-70
2022/10/20 10:25:48;;;;;;;99.20;56.13;;;22.70;86.20;;;;;;5001408;28;20281;-69
2022/10/20 10:28:31;;;;;;;101.40;55.40;;;23.00;86.10;;;;;;5001984;28;20203;-71
2022/10/20 10:31:15;;;;;;;93.67;52.30;;;23.10;84.90;;;;;;5004257;28;20196;-72
2022/10/20 10:33:42;;;;;;;97.03;53.23;;;23.40;84.10;;;;;;5002781;28;20518;-71
2022/10/20 10:36:28;;;;;;;94.00;53.70;;;23.50;83.40;;;;;;5009300;28;20258;-71
2022/10/20 10:38:57;;;;;;;65.73;39.23;;;23.70;82.70;;;;;;5020322;28;20641;-71
2022/10/20 10:41:33;;;;;;;60.73;38.87;;;23.80;82.20;;;;;;5000067;28;20192;-71
2022/10/20 10:44:14;;;;;;;67.83;41.90;;;23.90;81.50;;;;;;5002555;28;20223;-70
2022/10/20 10:46:42;;;;;;;68.13;41.67;;;24.10;79.10;;;;;;5004274;28;20195;-71
2022/10/20 10:49:20;;;;;;;73.17;42.40;;;24.10;78.30;;;;;;5004164;28;20203;-68
2022/10/20 10:51:56;;;;;;;74.27;42.83;;;24.10;78.40;;;;;;4999556;28;20204;-69
2022/10/20 10:54:37;;;;;;;64.00;41.37;;;24.10;78.10;;;;;;5004119;28;20200;-67
2022/10/20 10:57:10;;;;;;;54.73;39.50;;;24.20;78.00;;;;;;5002133;28;20215;-63
2022/10/20 10:59:42;;;;;;;54.13;36.57;;;24.10;76.80;;;;;;5002860;28;20563;-67
2022/10/20 11:02:44;;;;;;;44.33;31.40;;;24.00;77.10;;;;;;5003419;28;20528;-68
2022/10/20 11:05:30;;;;;;;46.87;33.73;;;23.90;77.10;;;;;;5002718;28;20269;-69
2022/10/20 11:08:03;;;;;;;39.80;29.17;;;23.80;77.20;;;;;;5001088;28;20216;-69
2022/10/20 11:10:53;;;;;;;35.67;27.27;;;23.70;77.30;;;;;;4996782;28;20708;-69
2022/10/20 11:13:39;;;;;;;36.07;26.67;;;23.70;77.60;;;;;;5000758;28;20291;-69
2022/10/20 11:16:23;;;;;;;30.90;22.70;;;23.70;77.30;;;;;;5004089;28;20204;-70
2022/10/20 11:19:03;;;;;;;31.67;24.17;;;23.90;77.30;;;;;;5001491;28;20220;-69
2022/10/20 11:21:40;;;;;;;28.30;23.10;;;24.10;76.30;;;;;;5002979;28;20239;-72
2022/10/20 11:24:20;;;;;;;29.80;22.77;;;24.30;75.10;;;;;;5004150;28;20200;-69
2022/10/20 11:26:57;;;;;;;39.43;23.60;;;24.40;74.70;;;;;;5001188;28;20185;-70
2022/10/20 11:29:32;;;;;;;30.93;24.00;;;24.40;73.40;;;;;;5010169;28;20202;-69
2022/10/20 11:32:23;;;;;;;32.70;23.43;;;24.60;73.20;;;;;;5008764;28;20211;-69
2022/10/20 11:35:02;;;;;;;32.90;23.37;;;24.60;72.50;;;;;;5007817;28;20196;-71
2022/10/20 11:37:55;;;;;;;27.37;22.57;;;24.60;72.40;;;;;;5009152;28;20203;-69
2022/10/20 11:40:34;;;;;;;30.67;21.67;;;24.60;72.60;;;;;;5008858;28;20586;-66
2022/10/20 11:43:24;;;;;;;29.27;21.70;;;24.60;72.20;;;;;;5008303;28;20203;-71
2022/10/20 11:45:54;;;;;;;26.40;20.00;;;24.60;72.40;;;;;;5007790;28;20630;-72
2022/10/20 11:48:42;;;;;;;27.90;20.77;;;24.60;71.10;;;;;;5008686;28;20219;-71
2022/10/20 11:51:30;;;;;;;27.53;19.83;;;24.80;70.90;;;;;;5006645;28;20638;-71
2022/10/20 11:54:21;;;;;;;31.40;20.87;;;24.90;70.30;;;;;;5009320;28;20216;-71
2022/10/20 11:57:17;;;;;;;28.70;20.63;;;25.00;70.10;;;;;;5005805;28;20204;-72
2022/10/20 12:00:14;;;;;;;22.10;17.63;;;24.90;69.80;;;;;;5006640;28;20227;-72
2022/10/20 12:02:41;;;;;;;20.77;15.70;;;24.90;69.60;;;;;;5010019;28;20284;-72
2022/10/20 12:05:17;;;;;;;20.47;16.87;;;24.90;69.30;;;;;;5004326;28;20201;-72
2022/10/20 12:07:56;;;;;;;18.80;15.10;;;25.00;68.50;;;;;;5008477;28;20219;-72
2022/10/20 12:11:04;;;;;;;19.20;14.60;;;25.00;67.90;;;;;;5010462;28;20298;-72
2022/10/20 12:13:56;;;;;;;16.70;14.47;;;25.00;67.50;;;;;;5005731;28;20214;-72
2022/10/20 12:16:51;;;;;;;16.87;14.57;;;25.00;67.40;;;;;;5017035;28;20626;-72
2022/10/20 12:19:32;;;;;;;20.63;14.67;;;25.00;67.40;;;;;;5010067;28;20211;-72
2022/10/20 12:22:17;;;;;;;18.27;13.60;;;25.00;67.70;;;;;;5007767;28;20203;-72
2022/10/20 12:24:53;;;;;;;20.37;15.67;;;25.00;67.50;;;;;;5004584;28;20544;-72
2022/10/20 12:27:28;;;;;;;17.53;13.80;;;24.90;68.10;;;;;;5010006;28;20211;-72
2022/10/20 12:30:22;;;;;;;15.17;13.13;;;24.90;68.30;;;;;;5007902;28;20714;-72
2022/10/20 12:32:52;;;;;;;14.33;12.83;;;24.90;67.90;;;;;;5009230;28;20552;-72
2022/10/20 12:35:19;;;;;;;17.53;14.80;;;24.90;67.70;;;;;;5007876;28;20211;-72
2022/10/20 12:38:02;;;;;;;18.27;14.77;;;24.80;67.60;;;;;;5007217;28;20220;-72
2022/10/20 12:40:51;;;;;;;20.67;16.37;;;24.70;67.80;;;;;;5006159;28;20587;-72
2022/10/20 12:43:47;;;;;;;19.07;15.00;;;24.60;68.20;;;;;;5007073;28;20356;-72
2022/10/20 12:46:21;;;;;;;20.13;15.57;;;24.60;68.50;;;;;;5003290;28;20200;-72
2022/10/20 12:48:55;;;;;;;21.60;14.93;;;24.60;68.70;;;;;;5004478;28;20214;-72